createdAt,value
2023-05-01T00:00:39.438Z,0.77
2023-05-01T00:03:11.364Z,0.30
2023-05-01T00:05:43.212Z,0.50
2023-05-01T00:08:15.064Z,0.30
2023-05-01T00:10:46.670Z,0.52
2023-05-01T00:13:23.325Z,0.30
2023-05-01T00:15:55.578Z,0.40
2023-05-01T00:18:26.682Z,0.30
2023-05-01T00:20:57.901Z,0.43
2023-05-01T00:23:29.437Z,0.50
2023-05-01T00:26:00.618Z,0.40
2023-05-01T00:28:31.774Z,0.30
2023-05-01T00:31:03.360Z,0.45
2023-05-01T00:33:34.448Z,0.38
2023-05-01T00:36:06.045Z,0.43
2023-05-01T00:38:38.022Z,0.50
2023-05-01T00:41:09.435Z,0.43
2023-05-01T00:43:40.767Z,0.40
2023-05-01T00:46:13.210Z,0.50
2023-05-01T00:48:45.199Z,0.50
2023-05-01T00:53:48.480Z,0.57
2023-05-01T00:56:19.690Z,0.30
2023-05-01T00:58:55.984Z,0.40
2023-05-01T01:01:28.376Z,0.40
2023-05-01T01:03:59.819Z,0.38
2023-05-01T01:06:33.097Z,0.40
2023-05-01T01:09:16.038Z,0.32
2023-05-01T01:12:16.012Z,0.20
2023-05-01T01:14:52.559Z,0.70
2023-05-01T01:17:41.340Z,0.50
2023-05-01T01:20:42.551Z,0.40
2023-05-01T01:23:32.425Z,0.70
2023-05-01T01:26:40.179Z,0.50
2023-05-01T01:29:32.930Z,0.35
2023-05-01T01:32:10.056Z,0.50
2023-05-01T01:34:51.687Z,0.50
2023-05-01T01:37:24.080Z,0.70
2023-05-01T01:40:13.998Z,1.10
2023-05-01T01:42:48.606Z,0.68
2023-05-01T01:45:25.194Z,0.50
2023-05-01T01:47:57.341Z,0.30
2023-05-01T01:50:29.694Z,0.30
2023-05-01T01:53:03.201Z,0.70
2023-05-01T01:55:36.612Z,0.55
2023-05-01T01:58:08.729Z,0.40
2023-05-01T02:00:42.569Z,0.35
2023-05-01T02:03:15.907Z,0.40
2023-05-01T02:05:48.379Z,0.25
2023-05-01T02:08:20.871Z,0.40
2023-05-01T02:10:53.083Z,0.38
2023-05-01T02:13:26.114Z,0.40
2023-05-01T02:16:02.312Z,0.47
2023-05-01T02:18:34.312Z,0.30
2023-05-01T02:21:06.898Z,0.35
2023-05-01T02:23:41.121Z,0.30
2023-05-01T02:26:15.900Z,0.40
2023-05-01T02:28:48.364Z,0.45
2023-05-01T02:31:19.878Z,0.68
2023-05-01T02:33:52.675Z,0.30
2023-05-01T02:36:24.521Z,0.40
2023-05-01T02:38:56.966Z,0.50
2023-05-01T02:41:29.615Z,0.40
2023-05-01T02:44:05.972Z,0.40
2023-05-01T02:46:39.233Z,0.50
2023-05-01T02:49:10.376Z,0.40
2023-05-01T02:51:42.399Z,0.40
2023-05-01T02:54:14.051Z,0.30
2023-05-01T02:56:46.691Z,0.30
2023-05-01T03:01:49.071Z,0.70
2023-05-01T03:06:51.342Z,0.50
2023-05-01T03:11:54.221Z,0.40
2023-05-01T03:14:25.421Z,0.50
2023-05-01T03:16:57.315Z,0.40
2023-05-01T03:19:28.611Z,0.17
2023-05-01T03:22:00.886Z,0.30
2023-05-01T03:24:32.325Z,0.30
2023-05-01T03:27:04.074Z,0.40
2023-05-01T03:29:36.543Z,0.43
2023-05-01T03:32:08.342Z,0.30
2023-05-01T03:34:40.496Z,0.40
2023-05-01T03:37:11.941Z,0.50
2023-05-01T03:39:43.616Z,0.47
2023-05-01T03:42:44.486Z,0.30
2023-05-01T03:45:23.171Z,0.40
2023-05-01T03:47:54.822Z,0.32
2023-05-01T03:50:26.386Z,0.32
2023-05-01T03:55:29.028Z,0.40
2023-05-01T03:58:00.386Z,0.40
2023-05-01T04:00:32.836Z,0.40
2023-05-01T04:03:04.271Z,0.40
2023-05-01T04:05:38.092Z,0.40
2023-05-01T04:08:10.404Z,0.50
2023-05-01T04:10:41.590Z,0.35
2023-05-01T04:13:16.006Z,0.40
2023-05-01T04:18:19.949Z,0.50
2023-05-01T04:20:51.573Z,0.50
2023-05-01T04:23:24.735Z,0.40
2023-05-01T04:25:58.950Z,0.30
2023-05-01T04:28:32.488Z,0.30
2023-05-01T04:31:03.886Z,0.40
2023-05-01T04:33:35.490Z,0.38
2023-05-01T04:38:38.771Z,0.40
2023-05-01T04:41:10.907Z,0.38
2023-05-01T04:43:43.005Z,0.40
2023-05-01T04:46:14.027Z,0.30
2023-05-01T04:48:45.702Z,0.28
2023-05-01T04:51:17.291Z,0.30
2023-05-01T04:53:48.480Z,0.50
2023-05-01T04:56:28.063Z,0.32
2023-05-01T04:59:04.349Z,0.50
2023-05-01T05:04:07.680Z,0.45
2023-05-01T05:06:39.123Z,0.50
2023-05-01T05:09:16.974Z,0.50
2023-05-01T05:11:50.009Z,0.32
2023-05-01T05:14:25.030Z,0.40
2023-05-01T05:16:56.370Z,0.50
2023-05-01T05:19:30.125Z,0.40
2023-05-01T05:22:04.681Z,0.40
2023-05-01T05:24:43.769Z,0.52
2023-05-01T05:27:17.600Z,0.40
2023-05-01T05:29:48.940Z,0.60
2023-05-01T05:32:20.550Z,0.47
2023-05-01T05:34:53.228Z,1.73
2023-05-01T05:37:26.878Z,1.20
2023-05-01T05:39:59.050Z,3.15
2023-05-01T05:42:33.944Z,2.05
2023-05-01T05:45:12.338Z,0.77
2023-05-01T05:47:44.069Z,0.80
2023-05-01T05:50:15.543Z,0.40
2023-05-01T05:52:49.022Z,0.63
2023-05-01T05:58:10.921Z,0.50
2023-05-01T06:00:43.245Z,0.43
2023-05-01T06:03:15.049Z,0.52
2023-05-01T06:05:47.438Z,0.60
2023-05-01T06:08:20.424Z,0.57
2023-05-01T06:10:52.136Z,0.50
2023-05-01T06:13:23.251Z,0.60
2023-05-01T06:15:54.763Z,0.55
2023-05-01T06:20:56.682Z,0.60
2023-05-01T06:23:28.061Z,0.70
2023-05-01T06:26:19.393Z,0.50
2023-05-01T06:28:50.561Z,1.00
2023-05-01T06:31:22.381Z,0.90
2023-05-01T06:33:57.664Z,0.57
2023-05-01T06:36:37.448Z,0.63
2023-05-01T06:39:09.061Z,0.45
2023-05-01T06:41:40.546Z,0.47
2023-05-01T06:44:11.577Z,0.52
2023-05-01T06:46:43.609Z,0.50
2023-05-01T06:49:16.701Z,0.40
2023-05-01T06:51:49.289Z,0.40
2023-05-01T06:54:20.895Z,0.20
2023-05-01T06:56:52.213Z,0.40
2023-05-01T06:59:23.632Z,0.32
2023-05-01T07:01:55.349Z,0.45
2023-05-01T07:04:26.985Z,0.40
2023-05-01T07:06:57.977Z,0.30
2023-05-01T07:09:28.871Z,0.30
2023-05-01T07:12:00.886Z,0.50
2023-05-01T07:14:32.587Z,0.60
2023-05-01T07:19:35.539Z,0.80
2023-05-01T07:22:07.368Z,0.80
2023-05-01T07:24:38.629Z,0.70
2023-05-01T07:27:10.735Z,0.85
2023-05-01T07:29:42.276Z,0.40
2023-05-01T07:32:13.698Z,0.70
2023-05-01T07:34:44.819Z,0.70
2023-05-01T07:37:15.856Z,0.30
2023-05-01T07:39:47.412Z,0.45
2023-05-01T07:44:49.707Z,0.45
2023-05-01T07:47:21.752Z,0.40
2023-05-01T07:49:53.322Z,0.55
2023-05-01T07:52:24.632Z,0.57
2023-05-01T07:54:55.799Z,0.70
2023-05-01T07:57:27.385Z,0.82
2023-05-01T07:59:58.991Z,0.60
2023-05-01T08:02:30.642Z,0.50
2023-05-01T08:05:02.322Z,0.63
2023-05-01T08:07:33.938Z,0.65
2023-05-01T08:10:05.798Z,0.60
2023-05-01T08:15:09.102Z,0.43
2023-05-01T08:17:40.826Z,0.50
2023-05-01T08:20:13.424Z,0.50
2023-05-01T08:22:45.266Z,0.40
2023-05-01T08:25:16.529Z,0.40
2023-05-01T08:27:47.831Z,0.60
2023-05-01T08:30:18.878Z,0.50
2023-05-01T08:32:50.636Z,0.60
2023-05-01T08:37:53.181Z,0.50
2023-05-01T08:40:26.118Z,0.50
2023-05-01T08:42:57.560Z,0.40
2023-05-01T08:45:32.653Z,0.40
2023-05-01T08:48:13.480Z,0.50
2023-05-01T08:50:48.703Z,0.43
2023-05-01T08:53:21.420Z,0.40
2023-05-01T08:55:53.714Z,0.63
2023-05-01T08:58:27.850Z,0.50
2023-05-01T09:00:59.715Z,0.60
2023-05-01T09:03:34.206Z,0.50
2023-05-01T09:06:05.750Z,0.52
2023-05-01T09:08:39.029Z,0.45
2023-05-01T09:11:13.264Z,0.50
2023-05-01T09:13:44.649Z,0.40
2023-05-01T09:16:16.178Z,0.40
2023-05-01T09:18:47.578Z,0.40
2023-05-01T09:23:53.316Z,0.50
2023-05-01T09:26:25.323Z,0.55
2023-05-01T09:28:59.539Z,0.50
2023-05-01T09:31:36.703Z,0.52
2023-05-01T09:34:09.265Z,0.70
2023-05-01T09:36:42.308Z,0.60
2023-05-01T09:39:25.368Z,0.40
2023-05-01T09:41:57.110Z,0.55
2023-05-01T09:44:28.405Z,0.50
2023-05-01T09:46:59.673Z,0.40
2023-05-01T09:50:01.384Z,0.50
2023-05-01T09:52:36.970Z,0.40
2023-05-01T09:55:18.721Z,0.60
2023-05-01T09:57:50.821Z,0.40
2023-05-01T10:00:25.345Z,0.40
2023-05-01T10:02:56.836Z,0.40
2023-05-01T10:05:28.493Z,0.50
2023-05-01T10:08:05.186Z,0.50
2023-05-01T10:10:36.526Z,0.50
2023-05-01T10:13:18.031Z,0.40
2023-05-01T10:15:49.691Z,0.40
2023-05-01T10:18:21.320Z,0.30
2023-05-01T10:20:53.096Z,0.50
2023-05-01T10:23:25.236Z,0.40
2023-05-01T10:25:56.809Z,0.50
2023-05-01T10:28:30.172Z,0.50
2023-05-01T10:31:01.623Z,0.50
2023-05-01T10:36:05.132Z,0.55
2023-05-01T10:38:37.025Z,0.60
2023-05-01T10:41:08.156Z,0.47
2023-05-01T10:43:39.406Z,0.40
2023-05-01T10:46:10.776Z,0.40
2023-05-01T10:51:19.605Z,0.38
2023-05-01T10:54:12.322Z,0.40
2023-05-01T10:56:44.911Z,0.40
2023-05-01T10:59:16.433Z,0.40
2023-05-01T11:04:23.648Z,0.45
2023-05-01T11:07:19.897Z,0.40
2023-05-01T11:09:56.881Z,0.50
2023-05-01T11:13:03.750Z,0.52
2023-05-01T11:15:36.341Z,0.70
2023-05-01T11:18:08.567Z,0.60
2023-05-01T11:20:39.656Z,0.68
2023-05-01T11:23:11.023Z,0.68
2023-05-01T11:25:42.039Z,0.70
2023-05-01T11:28:13.499Z,0.60
2023-05-01T11:30:44.902Z,0.68
2023-05-01T11:35:47.630Z,0.85
2023-05-01T11:38:22.908Z,0.80
2023-05-01T11:40:59.827Z,0.80
2023-05-01T11:43:31.485Z,0.70
2023-05-01T11:46:05.452Z,0.70
2023-05-01T11:48:37.159Z,0.60
2023-05-01T11:51:17.704Z,0.80
2023-05-01T11:54:08.741Z,0.73
2023-05-01T11:56:42.485Z,0.80
2023-05-01T11:59:18.109Z,0.80
2023-05-01T12:01:49.908Z,0.90
2023-05-01T12:04:32.045Z,0.85
2023-05-01T12:07:03.681Z,0.80
2023-05-01T12:12:07.320Z,0.90
2023-05-01T12:14:38.818Z,0.80
2023-05-01T12:19:51.164Z,0.77
2023-05-01T12:22:22.672Z,0.70
2023-05-01T12:24:57.165Z,0.70
2023-05-01T12:27:28.600Z,0.90
2023-05-01T12:29:59.733Z,0.90
2023-05-01T12:32:35.461Z,0.70
2023-05-01T12:35:20.921Z,0.70
2023-05-01T12:37:55.642Z,1.10
2023-05-01T12:40:27.266Z,0.90
2023-05-01T12:43:01.473Z,0.93
2023-05-01T12:45:32.687Z,0.90
2023-05-01T12:48:04.087Z,1.00
2023-05-01T12:53:11.370Z,0.80
2023-05-01T12:55:48.148Z,0.80
2023-05-01T12:58:19.738Z,0.68
2023-05-01T13:00:54.341Z,0.80
2023-05-01T13:03:30.653Z,0.88
2023-05-01T13:06:02.892Z,1.00
2023-05-01T13:08:40.908Z,0.82
2023-05-01T13:11:17.814Z,0.70
2023-05-01T13:13:50.402Z,0.70
2023-05-01T13:16:22.693Z,0.70
2023-05-01T13:18:55.354Z,0.60
2023-05-01T13:21:28.591Z,0.80
2023-05-01T13:24:02.294Z,0.77
2023-05-01T13:26:35.151Z,0.68
2023-05-01T13:29:07.360Z,0.60
2023-05-01T13:31:39.029Z,0.73
2023-05-01T13:34:11.735Z,0.80
2023-05-01T13:36:43.354Z,0.65
2023-05-01T13:39:22.181Z,0.70
2023-05-01T13:41:53.952Z,0.70
2023-05-01T13:44:25.596Z,0.65
2023-05-01T13:46:56.758Z,0.80
2023-05-01T13:49:28.452Z,0.70
2023-05-01T13:51:59.548Z,0.70
2023-05-01T13:54:31.879Z,0.70
2023-05-01T13:57:04.332Z,0.68
2023-05-01T14:02:30.775Z,0.70
2023-05-01T14:05:03.295Z,0.73
2023-05-01T14:07:37.210Z,0.63
2023-05-01T14:10:12.575Z,0.77
2023-05-01T14:12:44.376Z,0.68
2023-05-01T14:15:18.569Z,0.52
2023-05-01T14:17:50.550Z,0.50
2023-05-01T14:20:22.088Z,0.60
2023-05-01T14:22:53.808Z,0.60
2023-05-01T14:25:29.888Z,0.63
2023-05-01T14:28:02.533Z,0.60
2023-05-01T14:30:35.810Z,0.55
2023-05-01T14:33:12.884Z,0.60
2023-05-01T14:36:02.193Z,0.57
2023-05-01T14:38:40.465Z,0.70
2023-05-01T14:41:14.748Z,0.70
2023-05-01T14:43:46.139Z,0.73
2023-05-01T14:46:18.210Z,0.55
2023-05-01T14:48:49.578Z,0.90
2023-05-01T14:51:22.626Z,0.73
2023-05-01T14:53:55.192Z,0.95
2023-05-01T14:56:27.036Z,0.60
2023-05-01T14:58:58.958Z,0.75
2023-05-01T15:01:30.325Z,1.00
2023-05-01T15:06:36.284Z,0.70
2023-05-01T15:09:08.074Z,0.70
2023-05-01T15:11:39.361Z,1.27
2023-05-01T15:14:11.019Z,1.00
2023-05-01T15:16:42.784Z,1.00
2023-05-01T15:19:14.436Z,1.35
2023-05-01T15:21:46.098Z,0.85
2023-05-01T15:26:48.331Z,1.17
2023-05-01T15:29:19.753Z,1.10
2023-05-01T15:32:01.174Z,1.23
2023-05-01T15:34:39.765Z,0.95
2023-05-01T15:37:11.068Z,1.30
2023-05-01T15:39:42.950Z,1.92
2023-05-01T15:42:14.541Z,1.98
2023-05-01T15:44:46.358Z,1.58
2023-05-01T15:49:48.325Z,1.63
2023-05-01T15:52:19.554Z,1.60
2023-05-01T15:54:51.100Z,1.30
2023-05-01T15:57:22.583Z,1.40
2023-05-01T16:02:28.552Z,1.30
2023-05-01T16:05:00.708Z,1.38
2023-05-01T16:07:34.445Z,1.00
2023-05-01T16:12:37.078Z,1.33
2023-05-01T16:15:09.349Z,1.25
2023-05-01T16:17:45.485Z,1.50
2023-05-01T16:20:18.507Z,1.42
2023-05-01T16:22:49.552Z,1.50
2023-05-01T16:25:20.879Z,1.35
2023-05-01T16:27:52.368Z,1.63
2023-05-01T16:30:25.979Z,2.47
2023-05-01T16:32:57.523Z,2.40
2023-05-01T16:35:30.050Z,2.60
2023-05-01T16:38:02.391Z,2.20
2023-05-01T16:40:33.769Z,2.22
2023-05-01T16:43:06.022Z,2.35
2023-05-01T16:45:39.614Z,2.17
2023-05-01T16:48:10.922Z,1.90
2023-05-01T16:50:43.032Z,1.88
2023-05-01T16:55:44.838Z,1.75
2023-05-01T16:58:15.972Z,2.22
2023-05-01T17:00:47.871Z,1.98
2023-05-01T17:03:19.390Z,2.13
2023-05-01T17:05:51.168Z,2.42
2023-05-01T17:08:22.559Z,2.42
2023-05-01T17:10:53.823Z,2.47
2023-05-01T17:15:56.034Z,2.80
2023-05-01T17:18:27.653Z,3.20
2023-05-01T17:20:58.988Z,3.47
2023-05-01T17:23:30.739Z,2.53
2023-05-01T17:26:02.338Z,2.60
2023-05-01T17:28:33.751Z,2.38
2023-05-01T17:31:06.539Z,2.40
2023-05-01T17:33:37.879Z,1.90
2023-05-01T17:36:09.340Z,1.90
2023-05-01T17:38:40.684Z,2.10
2023-05-01T17:41:12.398Z,2.00
2023-05-01T17:46:15.608Z,1.80
2023-05-01T17:48:47.437Z,2.45
2023-05-01T17:51:19.608Z,2.17
2023-05-01T17:53:50.881Z,2.40
2023-05-01T17:56:23.163Z,2.80
2023-05-01T17:58:54.655Z,2.55
2023-05-01T18:03:57.341Z,1.95
2023-05-01T18:06:28.986Z,1.70
2023-05-01T18:09:00.732Z,1.55
2023-05-01T18:14:03.262Z,1.40
2023-05-01T18:16:34.274Z,1.30
2023-05-01T18:19:05.910Z,1.55
2023-05-01T18:21:37.254Z,1.35
2023-05-01T18:24:08.993Z,1.90
2023-05-01T18:26:40.330Z,2.90
2023-05-01T18:29:11.402Z,2.40
2023-05-01T18:31:42.895Z,2.38
2023-05-01T18:34:14.128Z,2.60
2023-05-01T18:36:45.069Z,2.50
2023-05-01T18:39:16.517Z,2.60
2023-05-01T18:41:48.293Z,2.72
2023-05-01T18:46:50.935Z,2.05
2023-05-01T18:49:25.119Z,2.00
2023-05-01T18:51:56.873Z,2.00
2023-05-01T18:54:28.199Z,2.40
2023-05-01T18:56:59.733Z,2.08
2023-05-01T18:59:32.571Z,1.90
2023-05-01T19:02:05.419Z,2.40
2023-05-01T19:04:56.925Z,3.10
2023-05-01T19:07:29.571Z,3.20
2023-05-01T19:10:01.404Z,2.28
2023-05-01T19:12:35.874Z,2.15
2023-05-01T19:15:07.529Z,1.90
2023-05-01T19:17:39.088Z,1.92
2023-05-01T19:20:11.048Z,2.00
2023-05-01T19:22:42.445Z,2.83
2023-05-01T19:25:13.415Z,2.70
2023-05-01T19:27:44.879Z,3.97
2023-05-01T19:30:16.920Z,3.53
2023-05-01T19:32:48.662Z,3.28
2023-05-01T19:35:20.084Z,3.85
2023-05-01T19:37:58.962Z,3.75
2023-05-01T19:40:30.516Z,3.45
2023-05-01T19:43:02.080Z,3.70
2023-05-01T19:45:33.576Z,3.85
2023-05-01T19:48:04.876Z,3.88
2023-05-01T19:50:36.621Z,3.53
2023-05-01T19:53:08.715Z,3.35
2023-05-01T19:55:41.540Z,4.20
2023-05-01T19:58:12.925Z,3.63
2023-05-01T20:00:44.196Z,3.40
2023-05-01T20:03:17.133Z,3.83
2023-05-01T20:05:48.795Z,3.35
2023-05-01T20:08:20.294Z,3.03
2023-05-01T20:10:51.988Z,3.60
2023-05-01T20:13:23.329Z,3.60
2023-05-01T20:15:55.550Z,3.83
2023-05-01T20:18:29.102Z,3.35
2023-05-01T20:21:00.867Z,3.78
2023-05-01T20:23:32.518Z,3.50
2023-05-01T20:26:03.921Z,3.42
2023-05-01T20:28:35.139Z,3.30
2023-05-01T20:31:06.946Z,2.92
2023-05-01T20:33:38.176Z,3.15
2023-05-01T20:36:10.304Z,3.00
2023-05-01T20:38:45.072Z,2.95
2023-05-01T20:41:17.088Z,2.50
2023-05-01T20:43:48.705Z,2.33
2023-05-01T20:46:20.321Z,1.60
2023-05-01T20:48:51.670Z,1.52
2023-05-01T20:51:23.467Z,1.40
2023-05-01T20:53:56.091Z,1.15
2023-05-01T20:56:27.527Z,1.30
2023-05-01T20:58:59.000Z,1.63
2023-05-01T21:01:33.755Z,1.40
2023-05-01T21:04:07.619Z,1.30
2023-05-01T21:06:39.249Z,1.83
2023-05-01T21:11:43.715Z,1.38
2023-05-01T21:14:14.883Z,1.50
2023-05-01T21:16:46.409Z,1.20
2023-05-01T21:21:48.682Z,1.45
2023-05-01T21:24:24.997Z,1.40
2023-05-01T21:26:56.435Z,1.40
2023-05-01T21:29:27.912Z,1.67
2023-05-01T21:31:59.308Z,1.40
2023-05-01T21:37:01.525Z,1.42
2023-05-01T21:39:33.769Z,2.58
2023-05-01T21:42:06.415Z,1.80
2023-05-01T21:44:38.165Z,1.63
2023-05-01T21:47:10.115Z,2.05
2023-05-01T21:49:42.512Z,1.80
2023-05-01T21:52:16.368Z,2.10
2023-05-01T21:54:47.314Z,1.70
2023-05-01T21:57:18.860Z,1.80
2023-05-01T21:59:50.224Z,1.55
2023-05-01T22:02:21.780Z,1.30
2023-05-01T22:04:56.518Z,1.10
2023-05-01T22:07:28.321Z,1.15
2023-05-01T22:10:00.640Z,0.80
2023-05-01T22:12:33.857Z,1.00
2023-05-01T22:15:05.871Z,1.10
2023-05-01T22:22:41.140Z,0.70
2023-05-01T22:25:13.615Z,0.82
2023-05-01T22:27:44.972Z,0.90
2023-05-01T22:32:47.250Z,0.80
2023-05-01T22:35:18.828Z,0.90
2023-05-01T22:37:50.327Z,0.95
2023-05-01T22:40:21.579Z,0.80
2023-05-01T22:45:23.311Z,0.70
2023-05-01T22:50:25.900Z,0.87
2023-05-01T22:52:57.196Z,0.70
2023-05-01T22:55:28.342Z,0.52
2023-05-01T22:58:00.737Z,0.55
2023-05-01T23:03:03.428Z,0.50
2023-05-01T23:05:35.282Z,0.75
2023-05-01T23:08:06.378Z,0.80
2023-05-01T23:13:18.391Z,0.52
2023-05-01T23:15:51.565Z,0.77
2023-05-01T23:18:28.009Z,0.68
2023-05-01T23:20:59.484Z,0.82
2023-05-01T23:26:02.878Z,0.90
2023-05-01T23:28:34.841Z,0.70
2023-05-01T23:31:06.732Z,0.60
2023-05-01T23:33:39.501Z,0.70
2023-05-01T23:36:13.951Z,0.70
2023-05-01T23:38:45.565Z,0.65
2023-05-01T23:41:17.086Z,0.93
2023-05-01T23:43:49.578Z,0.75
2023-05-01T23:46:21.183Z,0.50
2023-05-01T23:48:52.970Z,0.50
2023-05-01T23:51:24.323Z,0.60
2023-05-01T23:53:55.757Z,0.60
2023-05-01T23:56:27.009Z,0.70
